Time;durP1;ratioP1;P1;durP2;ratioP2;P2;SDS_P1;SDS_P2;PMS_P1;PMS_P2;Temp;Humidity;BMP_temperature;BMP_pressure;BME280_temperature;BME280_humidity;BME280_pressure;Samples;Min_cycle;Max_cycle;Signal;HPM_P1;HPM_P2
2022/07/04 00:02:14;;;;;;;4.95;4.18;;;;;;;22.50;60.52;100697.28;5049756;28;20029;-67
2022/07/04 00:04:39;;;;;;;6.50;5.07;;;;;;;22.34;61.01;100692.06;5050189;28;20080;-66
2022/07/04 00:07:05;;;;;;;5.25;4.13;;;;;;;22.38;60.57;100698.94;5011255;28;20400;-66
2022/07/04 00:09:30;;;;;;;4.20;3.13;;;;;;;22.38;60.88;100690.91;5047889;28;20469;-66
2022/07/04 00:11:55;;;;;;;6.32;3.33;;;;;;;22.45;60.51;100688.69;5036828;28;20045;-66
2022/07/04 00:14:21;;;;;;;5.28;4.50;;;;;;;22.34;61.08;100682.25;5035375;28;20034;-66
2022/07/04 00:16:46;;;;;;;3.90;3.42;;;;;;;22.42;60.47;100688.91;5018747;28;20036;-66
2022/07/04 00:19:12;;;;;;;3.25;2.95;;;;;;;22.50;60.05;100684.78;5018975;28;20041;-66
2022/07/04 00:21:37;;;;;;;3.53;3.22;;;;;;;22.42;60.51;100684.41;5037018;28;20037;-66
2022/07/04 00:24:03;;;;;;;3.58;3.03;;;;;;;22.52;59.95;100690.03;5036860;28;20026;-67
2022/07/04 00:26:28;;;;;;;4.57;3.53;;;;;;;22.52;59.95;100692.69;5036586;28;20045;-66
2022/07/04 00:28:54;;;;;;;4.88;4.07;;;;;;;22.46;59.95;100691.31;5036672;28;20033;-66
2022/07/04 00:31:19;;;;;;;5.25;3.72;;;;;;;22.41;60.23;100693.41;5036517;28;20517;-66
2022/07/04 00:33:45;;;;;;;5.97;3.38;;;;;;;22.46;59.76;100687.72;5019553;28;20037;-66
2022/07/04 00:36:11;;;;;;;4.28;3.63;;;;;;;22.20;60.83;100686.78;5035505;28;20030;-66
2022/07/04 00:38:36;;;;;;;5.68;4.85;;;;;;;22.20;60.83;100690.31;5001122;28;20029;-65
2022/07/04 00:41:02;;;;;;;5.50;4.03;;;;;;;22.23;60.65;100684.78;5035362;28;20401;-65
2022/07/04 00:43:28;;;;;;;5.63;4.75;;;;;;;22.28;60.55;100690.69;5036052;28;20037;-65
2022/07/04 00:45:54;;;;;;;6.05;5.22;;;;;;;21.89;61.81;100684.22;5035162;28;20037;-65
2022/07/04 00:48:20;;;;;;;5.35;3.90;;;;;;;22.05;61.24;100683.25;5035530;28;20033;-65
2022/07/04 00:50:46;;;;;;;4.95;3.85;;;;;;;22.05;61.34;100677.91;5018707;28;20040;-65
2022/07/04 00:53:16;;;;;;;4.70;3.70;;;;;;;22.15;61.00;100680.88;5019005;28;20033;-66
2022/07/04 00:55:43;;;;;;;5.18;4.18;;;;;;;22.08;61.27;100669.69;5038461;28;20033;-66
2022/07/04 00:58:10;;;;;;;5.40;4.03;;;;;;;21.92;61.79;100675.16;5038718;28;20033;-65
2022/07/04 01:00:36;;;;;;;4.65;3.90;;;;;;;22.02;61.34;100662.94;5018474;28;20033;-66
2022/07/04 01:03:01;;;;;;;5.00;3.63;;;;;;;22.02;61.47;100656.69;5037842;28;20041;-66
2022/07/04 01:05:26;;;;;;;5.03;3.70;;;;;;;21.86;61.75;100655.03;5039894;28;20204;-66
2022/07/04 01:07:52;;;;;;;6.93;4.43;;;;;;;21.89;61.93;100653.97;5046531;28;20037;-66
2022/07/04 01:10:17;;;;;;;4.47;4.07;;;;;;;21.84;61.65;100646.22;5042664;28;20457;-66
2022/07/04 01:12:43;;;;;;;4.10;3.70;;;;;;;21.80;62.05;100649.22;5009941;28;20053;-66
2022/07/04 01:15:09;;;;;;;6.18;4.00;;;;;;;22.12;61.04;100652.47;4989956;28;20034;-66
2022/07/04 01:17:35;;;;;;;5.53;4.22;;;;;;;22.18;60.70;100652.09;5014602;28;20152;-66
2022/07/04 01:20:01;;;;;;;5.70;4.13;;;;;;;22.33;60.10;100664.47;5013621;28;20548;-66
2022/07/04 01:22:26;;;;;;;7.28;5.78;;;;;;;22.10;60.58;100662.41;5013188;28;20116;-64
2022/07/04 01:24:52;;;;;;;6.85;4.85;;;;;;;22.10;60.69;100671.31;5006146;28;20036;-66
2022/07/04 01:27:18;;;;;;;4.65;3.85;;;;;;;22.17;60.25;100663.75;5018507;28;20046;-67
2022/07/04 01:29:44;;;;;;;5.10;3.95;;;;;;;22.20;60.17;100668.06;4967307;28;20045;-66
2022/07/04 01:32:10;;;;;;;4.82;3.88;;;;;;;22.22;59.77;100671.47;4989239;28;20035;-65
2022/07/04 01:34:36;;;;;;;5.40;4.07;;;;;;;22.13;59.86;100672.94;4998816;28;20034;-66
2022/07/04 01:37:02;;;;;;;4.57;4.10;;;;;;;21.78;60.67;100673.38;5023847;28;20041;-65
2022/07/04 01:39:28;;;;;;;4.45;3.72;;;;;;;21.69;60.92;100673.09;4985823;28;20393;-65
2022/07/04 01:41:54;;;;;;;5.38;3.70;;;;;;;21.48;61.93;100669.97;4985472;28;20033;-65
2022/07/04 01:44:20;;;;;;;3.92;3.50;;;;;;;21.61;61.43;100676.25;5016973;28;20041;-65
2022/07/04 01:46:45;;;;;;;5.07;4.20;;;;;;;21.62;61.08;100675.28;4980023;28;20030;-64
2022/07/04 01:49:11;;;;;;;4.82;3.60;;;;;;;21.53;61.19;100673.19;5023978;28;20129;-64
2022/07/04 01:51:46;;;;;;;3.70;3.00;;;;;;;21.52;61.42;100669.66;4998582;28;20116;-64
2022/07/04 01:54:12;;;;;;;5.80;3.40;;;;;;;21.56;60.96;100660.50;5029787;28;20038;-64
2022/07/04 01:56:39;;;;;;;3.60;3.15;;;;;;;21.95;59.85;100666.94;5017090;28;20042;-64
2022/07/04 01:59:04;;;;;;;3.92;3.05;;;;;;;22.03;59.56;100663.78;5000110;28;20397;-64
2022/07/04 02:01:30;;;;;;;3.05;2.70;;;;;;;21.97;59.84;100666.84;5030834;28;20037;-64
2022/07/04 02:04:00;;;;;;;4.20;3.20;;;;;;;21.63;60.77;100660.97;4999344;28;20042;-64
2022/07/04 02:06:26;;;;;;;3.97;2.95;;;;;;;;;;5012486;28;20030;-64
2022/07/04 02:14:32;;;;;;;5.25;3.30;;;;;;;21.57;60.65;100654.19;5008299;28;20072;-65
2022/07/04 02:16:58;;;;;;;5.03;3.50;;;;;;;21.69;60.45;100654.38;5021734;28;20039;-65
2022/07/04 02:19:24;;;;;;;4.20;3.20;;;;;;;21.72;60.28;100655.03;5040967;28;20029;-65
2022/07/04 02:21:49;;;;;;;3.72;2.92;;;;;;;21.56;60.49;100656.97;5044417;28;20042;-65
2022/07/04 02:24:15;;;;;;;7.18;3.58;;;;;;;21.88;59.36;100647.75;5045163;28;20025;-65
2022/07/04 02:26:40;;;;;;;3.28;2.65;;;;;;;21.78;59.56;100653.78;5049867;28;20181;-64
2022/07/04 02:29:05;;;;;;;3.97;2.60;;;;;;;21.61;60.20;100654.84;4985145;28;20042;-64
2022/07/04 02:31:31;;;;;;;4.03;2.65;;;;;;;21.47;60.40;100657.56;5047069;28;20108;-64
2022/07/04 02:33:56;;;;;;;3.38;2.53;;;;;;;21.37;60.48;100652.75;5020760;28;20041;-64
2022/07/04 02:36:22;;;;;;;4.65;3.05;;;;;;;21.16;61.25;100659.41;5020636;28;20052;-65
2022/07/04 02:38:47;;;;;;;5.93;3.00;;;;;;;21.14;61.16;100655.97;5037096;28;20452;-65
2022/07/04 02:41:12;;;;;;;5.25;3.13;;;;;;;21.22;60.99;100653.69;5034015;28;20036;-64
2022/07/04 02:43:38;;;;;;;3.35;2.70;;;;;;;21.08;61.29;100656.34;5018974;28;20041;-65
2022/07/04 02:46:03;;;;;;;5.95;3.40;;;;;;;21.49;59.91;100655.63;5045923;28;20033;-65
2022/07/04 02:48:29;;;;;;;8.48;4.38;;;;;;;21.38;60.18;100658.97;5016996;28;20444;-65
2022/07/04 02:50:54;;;;;;;4.30;3.20;;;;;;;21.47;59.87;100657.56;5041316;28;20021;-65
2022/07/04 02:53:19;;;;;;;5.93;2.80;;;;;;;21.71;59.40;100666.69;5028248;28;20370;-64
2022/07/04 02:55:45;;;;;;;4.22;3.28;;;;;;;21.73;59.31;100654.06;5036986;28;20061;-65
2022/07/04 02:58:10;;;;;;;5.70;2.95;;;;;;;21.95;58.64;100656.25;5039391;28;20534;-65
2022/07/04 03:00:36;;;;;;;5.97;4.05;;;;;;;21.75;59.28;100668.22;5038343;28;20167;-65
2022/07/04 03:03:01;;;;;;;6.47;4.57;;;;;;;21.35;60.21;100667.19;5034818;28;20036;-65
2022/07/04 03:05:28;;;;;;;7.50;4.50;;;;;;;21.58;59.79;100657.72;5041244;28;20099;-64
2022/07/04 03:07:54;;;;;;;5.30;3.80;;;;;;;21.68;59.17;100655.34;5047414;28;20037;-65
2022/07/04 03:10:19;;;;;;;6.75;4.43;;;;;;;21.71;59.41;100656.00;5032391;28;20052;-64
2022/07/04 03:12:45;;;;;;;5.05;4.00;;;;;;;21.42;59.98;100660.50;5012758;28;20048;-64
2022/07/04 03:15:10;;;;;;;6.93;4.93;;;;;;;21.56;60.02;100656.97;5036471;28;20370;-64
2022/07/04 03:17:35;;;;;;;6.50;3.97;;;;;;;21.48;60.14;100651.25;5036543;28;20064;-65
2022/07/04 03:20:01;;;;;;;5.30;3.90;;;;;;;21.50;59.68;100650.19;4999788;28;20068;-64
2022/07/04 03:22:26;;;;;;;6.93;3.72;;;;;;;21.80;59.03;100651.88;5037757;28;20045;-64
2022/07/04 03:24:52;;;;;;;5.53;3.58;;;;;;;21.89;58.59;100657.47;5014046;28;20128;-65
2022/07/04 03:27:17;;;;;;;5.22;3.67;;;;;;;21.77;58.95;100652.06;5034242;28;20120;-65
2022/07/04 03:29:42;;;;;;;4.30;3.83;;;;;;;21.99;58.50;100649.75;5033713;28;20470;-64
2022/07/04 03:32:08;;;;;;;6.38;4.20;;;;;;;22.11;58.28;100654.28;5040342;28;20049;-64
2022/07/04 03:34:33;;;;;;;5.05;4.53;;;;;;;22.37;57.82;100655.25;5048165;28;20033;-64
2022/07/04 03:36:59;;;;;;;5.72;4.28;;;;;;;22.28;58.15;100650.53;4989134;28;20154;-64
2022/07/04 03:39:24;;;;;;;5.95;4.18;;;;;;;22.23;58.47;100649.97;5017158;28;20065;-64
2022/07/04 03:41:50;;;;;;;4.68;4.07;;;;;;;22.37;57.79;100660.63;5023704;28;20038;-64
2022/07/04 03:44:15;;;;;;;9.23;8.32;;;;;;;22.41;57.79;100660.41;5035425;28;20163;-64
2022/07/04 03:46:41;;;;;;;7.80;6.72;;;;;;;22.50;58.07;100651.75;4998582;28;20084;-65
2022/07/04 03:49:06;;;;;;;9.45;8.02;;;;;;;22.80;57.07;100647.03;5043871;28;20029;-64
2022/07/04 03:51:32;;;;;;;11.25;10.02;;;;;;;22.95;56.94;100655.88;5037386;28;20045;-65
2022/07/04 03:53:57;;;;;;;13.70;8.10;;;;;;;22.99;56.78;100656.50;5042964;28;20038;-65
2022/07/04 03:56:22;;;;;;;10.27;6.63;;;;;;;23.26;56.05;100653.72;5013790;28;20469;-65
2022/07/04 03:58:48;;;;;;;11.07;7.10;;;;;;;23.33;55.94;100658.53;5035419;28;20096;-65
2022/07/04 04:01:18;;;;;;;8.80;7.18;;;;;;;23.16;56.86;100668.75;5028709;28;20108;-65
2022/07/04 04:06:29;;;;;;;9.93;8.57;;;;;;;23.11;57.05;100659.19;5042051;28;20048;-65
2022/07/04 04:08:56;;;;;;;9.18;7.75;;;;;;;23.18;57.18;100659.63;5033016;28;20038;-64
2022/07/04 04:11:21;;;;;;;7.00;5.38;;;;;;;23.27;56.93;100658.97;5017434;28;20033;-65
2022/07/04 04:13:47;;;;;;;6.22;5.35;;;;;;;23.46;56.57;100652.31;5033779;28;20191;-65
2022/07/04 04:16:12;;;;;;;7.28;5.63;;;;;;;23.55;56.20;100659.72;5014297;28;20040;-65
2022/07/04 04:18:38;;;;;;;7.60;6.03;;;;;;;23.74;55.89;100652.09;5014604;28;20032;-64
2022/07/04 04:21:04;;;;;;;7.70;5.90;;;;;;;23.75;55.52;100648.44;5031237;28;20033;-64
2022/07/04 04:23:30;;;;;;;7.68;6.22;;;;;;;23.69;55.62;100654.22;4998157;28;20037;-65
2022/07/04 04:25:55;;;;;;;7.90;6.20;;;;;;;23.64;56.12;100644.78;5029601;28;20524;-64
2022/07/04 04:28:22;;;;;;;9.10;6.93;;;;;;;23.76;55.51;100639.41;4984858;28;20048;-65
2022/07/04 04:30:47;;;;;;;7.55;6.57;;;;;;;23.85;55.35;100640.56;5013194;28;20038;-64
2022/07/04 04:33:13;;;;;;;7.75;6.95;;;;;;;23.98;55.02;100640.53;5013818;28;20166;-65
2022/07/04 04:35:38;;;;;;;7.88;7.00;;;;;;;24.02;54.83;100644.72;5018344;28;20046;-65
2022/07/04 04:38:04;;;;;;;9.27;7.13;;;;;;;24.07;54.78;100642.53;5018032;28;20409;-64
2022/07/04 04:40:29;;;;;;;10.68;5.97;;;;;;;24.18;54.28;100639.91;5016269;28;20029;-64
2022/07/04 04:42:55;;;;;;;6.03;5.18;;;;;;;24.30;53.96;100648.88;5018234;28;20045;-64
2022/07/04 04:45:24;;;;;;;5.10;4.05;;;;;;;24.37;53.82;100641.22;5016298;28;20067;-64
2022/07/04 04:47:51;;;;;;;5.63;4.70;;;;;;;24.27;54.39;100646.44;4986875;28;20044;-64
2022/07/04 04:50:17;;;;;;;5.80;4.13;;;;;;;24.34;54.02;100637.81;5016262;28;20136;-64
2022/07/04 04:52:42;;;;;;;6.60;4.25;;;;;;;24.44;54.10;100637.97;5001559;28;20534;-65
2022/07/04 04:55:08;;;;;;;7.82;4.80;;;;;;;24.63;53.51;100648.19;5017495;28;20037;-65
2022/07/04 04:57:34;;;;;;;5.93;4.43;;;;;;;24.56;53.55;100641.56;5035136;28;20052;-65
2022/07/04 04:59:59;;;;;;;6.38;4.07;;;;;;;24.56;53.20;100638.88;5035269;28;20046;-65
2022/07/04 05:02:26;;;;;;;4.60;3.80;;;;;;;24.57;53.45;100637.91;5017658;28;20037;-65
2022/07/04 05:04:52;;;;;;;5.45;4.30;;;;;;;24.71;53.17;100640.41;5018204;28;20057;-65
2022/07/04 05:07:17;;;;;;;5.45;4.30;;;;;;;24.77;53.11;100661.41;5035071;28;20528;-65
2022/07/04 05:09:43;;;;;;;4.63;3.60;;;;;;;24.91;52.83;100652.31;5018131;28;20036;-65
2022/07/04 05:12:08;;;;;;;5.72;3.50;;;;;;;25.03;52.57;100651.34;5014881;28;20052;-65
2022/07/04 05:14:34;;;;;;;5.57;3.25;;;;;;;25.10;52.46;100648.22;5034710;28;20044;-65
2022/07/04 05:16:59;;;;;;;7.82;4.03;;;;;;;25.43;51.65;100658.16;5034799;28;20050;-65
2022/07/04 05:19:25;;;;;;;3.80;3.40;;;;;;;25.64;51.08;100655.56;5018219;28;20104;-65
2022/07/04 05:21:50;;;;;;;3.63;3.00;;;;;;;25.80;50.60;100656.94;5016249;28;20045;-65
2022/07/04 05:24:16;;;;;;;3.83;2.75;;;;;;;25.99;49.93;100655.44;5035310;28;20137;-65
2022/07/04 05:26:42;;;;;;;3.90;2.90;;;;;;;26.27;48.90;100648.63;4998173;28;20116;-65
2022/07/04 05:29:07;;;;;;;4.43;2.75;;;;;;;26.50;47.92;100660.22;5019479;28;20033;-65
2022/07/04 05:31:33;;;;;;;4.40;3.38;;;;;;;26.98;47.07;100657.03;5018387;28;20410;-66
2022/07/04 05:33:58;;;;;;;2.85;2.50;;;;;;;27.16;46.67;100652.75;5034435;28;20041;-66
2022/07/04 05:36:25;;;;;;;3.83;2.92;;;;;;;27.25;46.17;100653.81;5034593;28;20042;-63
2022/07/04 05:38:50;;;;;;;4.57;2.67;;;;;;;27.38;45.75;100653.59;5031122;28;20424;-65
2022/07/04 05:41:16;;;;;;;3.25;2.80;;;;;;;27.35;45.60;100651.16;5034766;28;20044;-66
2022/07/04 05:43:41;;;;;;;3.78;3.08;;;;;;;27.24;45.74;100652.94;5034132;28;20037;-65
2022/07/04 05:46:07;;;;;;;4.55;3.00;;;;;;;26.96;46.22;100656.28;5016302;28;20389;-65
2022/07/04 05:48:33;;;;;;;5.10;3.03;;;;;;;26.80;46.50;100651.34;5001097;28;20041;-65
2022/07/04 05:50:58;;;;;;;5.45;3.20;;;;;;;26.99;45.80;100639.84;5034202;28;20045;-64
2022/07/04 05:53:26;;;;;;;4.72;3.25;;;;;;;26.71;46.08;100644.91;5018666;28;20041;-64
2022/07/04 05:55:51;;;;;;;5.32;3.03;;;;;;;26.69;46.06;100644.19;5020953;28;20025;-64
2022/07/04 05:58:17;;;;;;;4.43;2.85;;;;;;;26.97;45.67;100633.72;5020623;28;20040;-65
2022/07/04 06:00:43;;;;;;;3.95;2.65;;;;;;;26.98;45.99;100632.75;5017662;28;20033;-66
2022/07/04 06:03:08;;;;;;;3.28;2.25;;;;;;;27.09;45.94;100638.06;5033944;28;20128;-65
2022/07/04 06:05:34;;;;;;;5.10;2.65;;;;;;;27.19;45.79;100630.91;5041091;28;20501;-65
2022/07/04 06:08:01;;;;;;;4.85;2.58;;;;;;;27.46;44.94;100629.47;5043410;28;20029;-66
2022/07/04 06:10:27;;;;;;;3.75;2.33;;;;;;;27.55;44.55;100634.03;5049443;28;20068;-66
2022/07/04 06:12:53;;;;;;;4.93;2.60;;;;;;;27.47;44.39;100623.09;5011065;28;20510;-65
2022/07/04 06:15:18;;;;;;;4.28;2.45;;;;;;;27.55;43.97;100636.75;5021658;28;20468;-65
2022/07/04 06:17:44;;;;;;;2.85;2.13;;;;;;;27.54;44.23;100637.75;4993795;28;20084;-65
2022/07/04 06:20:10;;;;;;;4.15;2.45;;;;;;;27.73;44.17;100628.88;5041444;28;20104;-65
2022/07/04 06:22:43;;;;;;;3.95;2.20;;;;;;;27.76;42.91;100634.00;5018805;28;20037;-65
2022/07/04 06:25:17;;;;;;;3.60;2.28;;;;;;;27.88;43.67;100642.84;5021676;28;20396;-66
2022/07/04 06:27:44;;;;;;;7.07;2.80;;;;;;;27.88;43.66;100645.53;5040300;28;20038;-66
2022/07/04 06:30:10;;;;;;;4.50;2.42;;;;;;;28.04;43.16;100650.41;5028075;28;20033;-65
2022/07/04 06:32:46;;;;;;;5.30;2.72;;;;;;;27.71;43.22;100655.97;5034867;28;20037;-66
2022/07/04 06:37:57;;;;;;;5.30;2.50;;;;;;;27.93;43.42;100651.41;5047399;28;20559;-66
2022/07/04 06:40:23;;;;;;;4.10;2.03;;;;;;;28.21;43.32;100647.88;5034080;28;20026;-66
2022/07/04 06:42:50;;;;;;;3.42;2.30;;;;;;;28.35;42.82;100641.19;5026964;28;20037;-66
2022/07/04 06:45:15;;;;;;;2.63;1.83;;;;;;;28.65;42.58;100642.09;5051526;28;20063;-66
2022/07/04 06:47:41;;;;;;;3.03;1.83;;;;;;;28.85;42.21;100648.34;5047969;28;20086;-66
2022/07/04 06:50:07;;;;;;;4.22;2.13;;;;;;;29.07;41.41;100647.16;5021487;28;20041;-66
2022/07/04 06:52:34;;;;;;;3.15;2.22;;;;;;;29.29;41.27;100659.50;4996115;28;20036;-66
2022/07/04 06:54:59;;;;;;;4.22;2.15;;;;;;;29.24;41.16;100661.78;5023051;28;20041;-67
2022/07/04 06:57:25;;;;;;;2.22;1.90;;;;;;;29.20;41.14;100656.69;5040452;28;20044;-66
2022/07/04 06:59:50;;;;;;;3.00;2.10;;;;;;;29.52;40.89;100657.25;5038308;28;20033;-67
2022/07/04 07:02:16;;;;;;;3.00;1.60;;;;;;;29.82;40.08;100658.88;5032148;28;20037;-66
2022/07/04 07:04:42;;;;;;;3.10;1.50;;;;;;;30.16;39.74;100661.81;5032828;28;20091;-66
2022/07/04 07:07:08;;;;;;;3.58;1.70;;;;;;;30.36;39.35;100663.41;5022135;28;20094;-66
2022/07/04 07:09:34;;;;;;;1.85;1.48;;;;;;;30.18;39.60;100655.25;5020168;28;20428;-66
2022/07/04 07:11:59;;;;;;;2.92;1.88;;;;;;;30.42;39.12;100653.78;5035448;28;20064;-67
2022/07/04 07:14:25;;;;;;;2.53;1.40;;;;;;;30.40;39.02;100648.53;5017496;28;20124;-66
2022/07/04 07:16:50;;;;;;;2.47;1.48;;;;;;;29.86;39.28;100654.84;5029530;28;20033;-67
2022/07/04 07:19:16;;;;;;;3.03;1.70;;;;;;;30.24;39.18;100658.34;5027070;28;20061;-67
2022/07/04 07:21:41;;;;;;;3.20;1.70;;;;;;;30.48;38.22;100652.31;4988887;28;20084;-66
2022/07/04 07:24:07;;;;;;;3.17;1.70;;;;;;;30.47;38.75;100653.31;5026815;28;20057;-66
2022/07/04 07:26:32;;;;;;;3.42;1.98;;;;;;;30.46;38.83;100652.47;5012486;28;20495;-67
2022/07/04 07:28:58;;;;;;;2.90;1.80;;;;;;;30.61;38.44;100659.06;5028479;28;20029;-67
2022/07/04 07:31:23;;;;;;;2.30;1.83;;;;;;;30.68;38.44;100652.00;5031052;28;20764;-67
2022/07/04 07:33:49;;;;;;;3.42;2.05;;;;;;;30.94;37.82;100647.63;4998179;28;20037;-66
2022/07/04 07:36:14;;;;;;;2.50;1.70;;;;;;;31.08;37.13;100650.63;5032437;28;20091;-66
2022/07/04 07:38:40;;;;;;;2.85;1.65;;;;;;;31.59;36.35;100651.59;5030317;28;20581;-65
2022/07/04 07:41:11;;;;;;;3.50;1.40;;;;;;;32.13;35.54;100641.28;5032755;28;20087;-66
2022/07/04 07:43:38;;;;;;;3.43;1.80;;;;;;;32.28;35.43;100648.81;5031332;28;20056;-65
2022/07/04 07:46:07;;;;;;;3.55;2.10;;;;;;;31.59;35.37;100665.16;5014947;28;20076;-65
2022/07/04 07:48:33;;;;;;;4.05;2.20;;;;;;;31.56;36.04;100653.78;5018085;28;20395;-65
2022/07/04 07:50:59;;;;;;;2.38;1.80;;;;;;;31.08;37.35;100647.91;5027837;28;20702;-66
2022/07/04 07:53:25;;;;;;;2.35;1.95;;;;;;;30.11;38.43;100647.84;5031486;28;20032;-66
2022/07/04 07:55:50;;;;;;;2.15;1.77;;;;;;;30.03;39.16;100651.31;4998106;28;20112;-66
2022/07/04 07:58:16;;;;;;;3.70;3.00;;;;;;;29.00;41.22;100662.28;5032133;28;20026;-66
2022/07/04 08:00:42;;;;;;;7.03;3.67;;;;;;;28.61;42.13;100679.38;5031610;28;20030;-67
2022/07/04 08:05:51;;;;;;;5.47;3.90;;;;;;;27.54;44.18;100698.97;5030598;28;20577;-66
2022/07/04 08:08:18;;;;;;;6.95;3.60;;;;;;;27.38;43.84;100696.75;5018166;28;20120;-68
2022/07/04 08:10:48;;;;;;;3.38;3.08;;;;;;;27.07;43.92;100704.75;5019005;28;20041;-66
2022/07/04 08:13:23;;;;;;;5.32;3.10;;;;;;;26.57;44.49;100709.03;4993217;28;20137;-66
2022/07/04 08:15:53;;;;;;;3.55;3.10;;;;;;;26.27;44.46;100715.97;5016282;28;20228;-66
2022/07/04 08:18:19;;;;;;;5.70;2.78;;;;;;;26.35;44.94;100702.72;4997706;28;20038;-67
2022/07/04 08:20:45;;;;;;;4.90;2.50;;;;;;;26.41;44.85;100709.41;4994957;28;20087;-68
2022/07/04 08:23:10;;;;;;;3.17;2.22;;;;;;;25.98;45.63;100713.81;5001325;28;20041;-68
2022/07/04 08:25:36;;;;;;;5.30;2.35;;;;;;;26.03;45.66;100711.59;5016579;28;20112;-67
2022/07/04 08:28:11;;;;;;;4.43;2.40;;;;;;;26.02;45.63;100717.13;5018532;28;20121;-67
2022/07/04 08:31:04;;;;;;;3.30;2.65;;;;;;;25.43;47.02;100720.88;5007346;28;20033;-66
2022/07/04 08:33:31;;;;;;;;;;;;;;;25.17;47.78;100725.56;5004735;28;20048;-67
2022/07/04 08:35:59;;;;;;;4.10;2.83;;;;;;;24.99;48.19;100735.88;5025797;28;20305;-66
2022/07/04 08:38:33;;;;;;;7.43;3.22;;;;;;;25.20;47.68;100728.03;5024482;28;20030;-66
2022/07/04 08:41:06;;;;;;;4.75;2.90;;;;;;;24.81;48.53;100729.22;4997386;28;20425;-67
2022/07/04 08:43:36;;;;;;;4.43;3.15;;;;;;;24.45;49.44;100730.16;5022136;28;20061;-68
2022/07/04 08:46:44;;;;;;;5.53;3.00;;;;;;;24.34;50.11;100734.47;5028899;28;20105;-67
2022/07/04 08:49:15;;;;;;;5.75;3.10;;;;;;;24.58;49.33;100730.97;5021431;28;20037;-67
2022/07/04 08:51:45;;;;;;;4.80;2.90;;;;;;;24.43;50.36;100724.03;5011978;28;20565;-66
2022/07/04 08:59:45;;;;;;;3.47;2.25;;;;;;;24.92;48.73;100718.50;5015687;28;20168;-66
2022/07/04 09:02:13;;;;;;;3.90;2.78;;;;;;;24.72;49.40;100706.59;5028515;28;20045;-65
2022/07/04 09:04:40;;;;;;;3.42;2.45;;;;;;;24.85;49.22;100693.06;5009703;28;20087;-65
2022/07/04 09:07:06;;;;;;;2.38;2.13;;;;;;;25.31;48.20;100682.34;5023221;28;20029;-66
2022/07/04 09:09:33;;;;;;;2.38;2.10;;;;;;;25.70;47.81;100668.53;5000557;28;20484;-67
2022/07/04 09:11:58;;;;;;;2.50;2.30;;;;;;;26.01;47.20;100664.22;5018555;28;20026;-67
2022/07/04 09:14:23;;;;;;;4.30;2.13;;;;;;;26.51;46.33;100643.06;5044103;28;20107;-70
2022/07/04 09:16:51;;;;;;;4.07;2.70;;;;;;;26.52;46.57;100612.44;5051991;28;20037;-70
2022/07/04 09:19:21;;;;;;;3.55;2.50;;;;;;;27.03;45.95;100592.75;5015938;28;20120;-63
2022/07/04 09:21:48;;;;;;;2.58;2.33;;;;;;;27.47;45.16;100602.34;5018757;28;20033;-63
2022/07/04 09:24:13;;;;;;;3.55;2.35;;;;;;;27.55;45.27;100612.47;5021451;28;20033;-64
2022/07/04 09:26:46;;;;;;;4.95;2.00;;;;;;;27.72;45.47;100592.03;5024209;28;20060;-63
2022/07/04 09:29:12;;;;;;;;;;;;;;;27.70;46.63;100589.50;5007202;28;20040;-64
2022/07/04 09:31:38;;;;;;;4.47;2.15;;;;;;;27.74;45.49;100596.34;5043899;28;20003;-63
2022/07/04 09:34:06;;;;;;;5.53;2.40;;;;;;;27.75;45.67;100599.91;5026493;28;20048;-66
2022/07/04 09:36:40;;;;;;;3.88;2.22;;;;;;;27.73;45.87;100597.34;4995300;28;20082;-62
2022/07/04 09:39:14;;;;;;;4.10;2.15;;;;;;;28.10;45.10;100596.69;5033135;28;20122;-61
2022/07/04 09:41:53;;;;;;;5.68;2.30;;;;;;;28.14;45.73;100600.81;5015141;28;20163;-62
2022/07/04 09:44:19;;;;;;;2.63;1.88;;;;;;;28.33;44.59;100594.56;5016712;28;20029;-62
2022/07/04 09:46:45;;;;;;;3.15;2.22;;;;;;;28.53;44.29;100605.38;5025636;28;20041;-62
2022/07/04 09:49:12;;;;;;;4.60;2.10;;;;;;;28.57;44.50;100606.81;5019597;28;20059;-61
2022/07/04 09:51:42;;;;;;;3.15;1.58;;;;;;;28.74;44.34;100603.38;5035577;28;20044;-61
2022/07/04 09:54:17;;;;;;;2.40;1.63;;;;;;;29.09;44.43;100613.56;5028347;28;20080;-61
2022/07/04 09:56:48;;;;;;;2.17;1.77;;;;;;;29.10;43.75;100609.00;5049599;28;20026;-58
2022/07/04 09:59:14;;;;;;;2.28;1.75;;;;;;;29.02;43.67;100604.34;5039785;28;20029;-54
2022/07/04 10:01:39;;;;;;;2.30;1.58;;;;;;;29.11;43.14;100605.31;5037945;28;20182;-58
2022/07/04 10:04:06;;;;;;;2.25;1.60;;;;;;;29.15;43.04;100621.09;5038210;28;20469;-62
2022/07/04 10:06:33;;;;;;;3.65;2.20;;;;;;;29.54;42.86;100617.38;4997217;28;20087;-59
2022/07/04 10:09:15;;;;;;;2.45;1.55;;;;;;;29.59;42.58;100613.25;5002973;28;20831;-59
2022/07/04 10:11:46;;;;;;;2.22;1.45;;;;;;;30.03;42.01;100613.41;5028912;28;20025;-59
2022/07/04 10:14:13;;;;;;;2.13;1.30;;;;;;;30.40;41.36;100618.72;5047981;28;20269;-59
2022/07/04 10:16:40;;;;;;;1.98;1.50;;;;;;;31.11;39.85;100625.03;5025597;28;20040;-60
2022/07/04 10:19:07;;;;;;;1.75;1.52;;;;;;;31.38;39.72;100616.72;5001160;28;20163;-61
2022/07/04 10:21:33;;;;;;;1.75;1.60;;;;;;;31.40;39.83;100614.72;5010284;28;20034;-61
2022/07/04 10:23:59;;;;;;;4.00;1.35;;;;;;;31.56;39.96;100604.91;4999367;28;20030;-59
2022/07/04 10:26:28;;;;;;;2.00;1.33;;;;;;;31.78;39.95;100612.47;5016581;28;20128;-58
2022/07/04 10:28:53;;;;;;;2.30;1.90;;;;;;;32.04;38.54;100606.13;5020556;28;20040;-59
2022/07/04 10:31:21;;;;;;;2.13;1.73;;;;;;;31.81;38.64;100605.84;5049418;28;20025;-58
2022/07/04 10:33:47;;;;;;;1.88;1.48;;;;;;;31.99;38.94;100603.88;5024438;28;20029;-59
2022/07/04 10:36:16;;;;;;;3.88;2.00;;;;;;;31.92;38.06;100602.88;5014594;28;20082;-58
2022/07/04 10:38:53;;;;;;;1.88;1.48;;;;;;;32.19;39.31;100601.69;5033038;28;20507;-58
2022/07/04 10:41:21;;;;;;;1.77;1.42;;;;;;;32.02;38.38;100606.28;5028374;28;20036;-58
2022/07/04 10:44:09;;;;;;;2.30;1.60;;;;;;;31.76;38.83;100600.94;5022138;28;20041;-59
2022/07/04 10:46:44;;;;;;;2.90;1.20;;;;;;;31.54;37.98;100605.09;5015895;28;20052;-58
2022/07/04 10:49:16;;;;;;;4.03;1.65;;;;;;;31.36;37.22;100598.91;5031187;28;20413;-58
2022/07/04 10:51:56;;;;;;;4.13;1.80;;;;;;;31.51;37.93;100596.41;5020982;28;20392;-62
2022/07/04 10:54:32;;;;;;;3.38;1.75;;;;;;;31.69;38.19;100597.16;5035503;28;20071;-59
2022/07/04 10:57:21;;;;;;;3.35;1.67;;;;;;;31.65;37.90;100599.34;5042327;28;20379;-58
2022/07/04 10:59:56;;;;;;;1.70;1.60;;;;;;;31.71;38.74;100605.13;5016299;28;20484;-59
2022/07/04 11:02:25;;;;;;;2.35;1.90;;;;;;;31.73;38.21;100598.53;5032574;28;20381;-58
2022/07/04 11:04:56;;;;;;;3.30;1.70;;;;;;;31.78;37.65;100600.75;5018618;28;20033;-58
2022/07/04 11:07:37;;;;;;;1.92;1.60;;;;;;;31.71;37.16;100592.41;5031211;28;20159;-58
2022/07/04 11:10:12;;;;;;;2.53;1.80;;;;;;;31.47;36.23;100597.75;5013548;28;20149;-59
2022/07/04 11:12:53;;;;;;;4.03;1.98;;;;;;;31.44;38.01;100604.38;5044240;28;20041;-60
2022/07/04 11:15:39;;;;;;;2.05;1.80;;;;;;;31.59;37.94;100604.59;5034069;28;20026;-61
2022/07/04 11:18:14;;;;;;;1.88;1.73;;;;;;;31.75;36.68;100601.06;5038423;28;20072;-61
2022/07/04 11:20:46;;;;;;;2.33;1.95;;;;;;;31.76;37.87;100603.66;5025062;28;20476;-58
2022/07/04 11:23:19;;;;;;;2.65;1.90;;;;;;;31.58;36.14;100603.75;5048033;28;20472;-62
2022/07/04 11:25:46;;;;;;;2.70;2.00;;;;;;;31.33;37.87;100608.22;5026692;28;20052;-65
2022/07/04 11:28:19;;;;;;;2.60;2.15;;;;;;;31.46;37.67;100599.63;5015397;28;20039;-57
2022/07/04 11:30:54;;;;;;;3.47;2.10;;;;;;;31.30;37.76;100589.53;5024644;28;20036;-60
2022/07/04 11:33:22;;;;;;;3.53;2.42;;;;;;;31.44;37.62;100592.63;4998538;28;20083;-59
2022/07/04 11:36:30;;;;;;;3.60;2.20;;;;;;;31.59;38.82;100602.72;5001050;28;20481;-59
2022/07/04 11:39:00;;;;;;;4.95;2.10;;;;;;;31.84;37.28;100591.94;5033518;28;20447;-59
2022/07/04 11:47:15;;;;;;;2.42;2.03;;;;;;;31.55;37.56;100593.19;5040488;28;20040;-60
2022/07/04 11:49:53;;;;;;;3.00;2.10;;;;;;;31.52;37.01;100590.84;5039133;28;20410;-59
2022/07/04 11:52:23;;;;;;;2.67;2.20;;;;;;;31.34;37.67;100582.78;5036835;28;20091;-60
2022/07/04 11:54:51;;;;;;;2.17;1.88;;;;;;;31.35;37.41;100580.91;5033506;28;20427;-59